Time,TemperatureF,DewpointF,PressureIn,WindDirection,WindDirectionDegrees,WindSpeedMPH,WindSpeedGustMPH,Humidity,HourlyPrecipIn,Conditions,Clouds,dailyrainin,SoftwareType,DateUTC
2013-01-08 00:00:00,41.1,32.1,30.16,SW,226,5.0,13.0,70,0.00,,---,0.04,VWS V14.01,2013-01-08 08:00:00,
2013-01-08 00:02:00,41.1,32.1,30.15,SW,222,0.0,5.0,70,0.00,,---,0.00,VWS V14.01,2013-01-08 08:02:00,
2013-01-08 00:07:00,41.2,32.2,30.15,SW,229,8.0,8.0,70,0.00,,---,0.00,VWS V14.01,2013-01-08 08:07:00,
2013-01-08 00:12:00,41.4,32.0,30.15,SW,232,7.0,10.0,69,0.00,,---,0.00,VWS V14.01,2013-01-08 08:12:00,
2013-01-08 00:15:00,41.5,32.1,30.15,WSW,238,5.0,10.0,69,0.00,,---,0.00,VWS V14.01,2013-01-08 08:15:00,
2013-01-08 00:17:00,41.6,32.2,30.15,WSW,242,6.0,10.0,69,0.00,,---,0.00,VWS V14.01,2013-01-08 08:17:00,
2013-01-08 00:22:00,41.6,32.2,30.15,WSW,237,7.0,15.0,69,0.00,,---,0.00,VWS V14.01,2013-01-08 08:22:00,
2013-01-08 00:27:00,41.2,32.2,30.15,WSW,248,5.0,15.0,70,0.00,,---,0.00,VWS V14.01,2013-01-08 08:27:00,
2013-01-08 00:30:00,41.0,32.3,30.15,SW,236,0.0,15.0,71,0.00,,---,0.00,VWS V14.01,2013-01-08 08:30:00,
2013-01-08 00:32:00,40.8,32.1,30.15,SW,236,0.0,0.0,71,0.00,,---,0.00,VWS V14.01,2013-01-08 08:32:00,
2013-01-08 00:37:00,40.5,32.2,30.15,SW,233,0.0,0.0,72,0.00,,---,0.00,VWS V14.01,2013-01-08 08:37:00,
2013-01-08 00:42:00,40.3,32.0,30.15,SW,234,0.0,0.0,72,0.00,,---,0.00,VWS V14.01,2013-01-08 08:42:00,
2013-01-08 00:45:00,40.2,32.2,30.15,SW,234,0.0,0.0,73,0.00,,---,0.00,VWS V14.01,2013-01-08 08:45:00,
2013-01-08 00:47:00,40.0,32.1,30.16,SW,233,0.0,0.0,73,0.00,,---,0.00,VWS V14.01,2013-01-08 08:47:00,
2013-01-08 00:52:00,39.8,31.9,30.16,SW,233,0.0,0.0,73,0.00,,---,0.00,VWS V14.01,2013-01-08 08:52:00,
2013-01-08 00:57:00,39.7,32.1,30.16,NNE,14,0.0,0.0,74,0.00,,---,0.00,VWS V14.01,2013-01-08 08:57:00,
2013-01-08 01:00:00,39.4,31.8,30.16,NNE,13,0.0,0.0,74,0.00,,---,0.00,VWS V14.01,2013-01-08 09:00:00,
2013-01-08 01:02:00,39.2,32.0,30.16,NNE,13,0.0,0.0,75,0.00,,---,0.00,VWS V14.01,2013-01-08 09:02:00,
2013-01-08 01:07:00,39.0,32.1,30.16,NNE,15,0.0,0.0,76,0.00,,---,0.00,VWS V14.01,2013-01-08 09:07:00,
2013-01-08 01:12:00,39.0,32.1,30.16,NNE,19,0.0,0.0,76,0.00,,---,0.00,VWS V14.01,2013-01-08 09:12:00,
2013-01-08 01:15:00,39.3,32.0,30.16,NE,46,0.0,0.0,75,0.00,,---,0.00,VWS V14.01,2013-01-08 09:15:00,
2013-01-08 01:17:00,39.3,32.0,30.17,NE,45,0.0,0.0,75,0.00,,---,0.00,VWS V14.01,2013-01-08 09:17:00,
2013-01-08 01:22:00,39.7,32.1,30.17,NE,55,0.0,0.0,74,0.00,,---,0.00,VWS V14.01,2013-01-08 09:22:00,
2013-01-08 01:27:00,40.2,32.2,30.17,ENE,65,0.0,0.0,73,0.00,,---,0.00,VWS V14.01,2013-01-08 09:27:00,
2013-01-08 01:30:00,40.3,32.3,30.17,ENE,66,0.0,0.0,73,0.00,,---,0.00,VWS V14.01,2013-01-08 09:30:00,
2013-01-08 01:32:00,40.2,32.2,30.17,ENE,66,0.0,0.0,73,0.00,,---,0.00,VWS V14.01,2013-01-08 09:32:00,
2013-01-08 01:37:00,39.3,31.7,30.17,North,349,0.0,0.0,74,0.00,,---,0.00,VWS V14.01,2013-01-08 09:37:00,
2013-01-08 01:42:00,39.5,32.2,30.17,North,360,0.0,0.0,75,0.00,,---,0.00,VWS V14.01,2013-01-08 09:42:00,
2013-01-08 01:45:00,39.9,32.3,30.17,NNE,18,0.0,0.0,74,0.00,,---,0.00,VWS V14.01,2013-01-08 09:45:00,
2013-01-08 01:47:00,40.1,32.5,30.17,NNE,18,0.0,0.0,74,0.00,,---,0.00,VWS V14.01,2013-01-08 09:47:00,
2013-01-08 01:52:00,39.9,32.3,30.17,NE,49,0.0,0.0,74,0.00,,---,0.00,VWS V14.01,2013-01-08 09:52:00,
2013-01-08 01:57:00,39.1,31.9,30.17,NE,53,3.0,4.0,75,0.00,,---,0.00,VWS V14.01,2013-01-08 09:57:00,
2013-01-08 02:00:00,39.5,32.2,30.17,NE,53,4.0,5.0,75,0.00,,---,0.00,VWS V14.01,2013-01-08 10:00:00,
2013-01-08 02:02:00,39.6,32.0,30.17,NE,51,3.0,5.0,74,0.00,,---,0.00,VWS V14.01,2013-01-08 10:02:00,
2013-01-08 02:07:00,39.8,32.2,30.17,NNE,26,4.0,6.0,74,0.00,,---,0.00,VWS V14.01,2013-01-08 10:07:00,
2013-01-08 02:12:00,39.7,32.1,30.17,NE,34,0.0,6.0,74,0.00,,---,0.00,VWS V14.01,2013-01-08 10:12:00,
2013-01-08 02:15:00,39.5,31.9,30.17,NE,36,0.0,6.0,74,0.00,,---,0.00,VWS V14.01,2013-01-08 10:15:00,
2013-01-08 02:17:00,39.4,32.2,30.17,NE,37,0.0,0.0,75,0.00,,---,0.00,VWS V14.01,2013-01-08 10:17:00,
2013-01-08 02:22:00,38.6,31.7,30.17,NE,48,0.0,0.0,76,0.00,,---,0.00,VWS V14.01,2013-01-08 10:22:00,
2013-01-08 02:27:00,37.6,31.4,30.17,NE,46,0.0,1.0,78,0.00,,---,0.00,VWS V14.01,2013-01-08 10:27:00,
2013-01-08 02:30:00,37.5,31.6,30.17,NE,47,0.0,1.0,79,0.00,,---,0.00,VWS V14.01,2013-01-08 10:30:00,
2013-01-08 02:32:00,37.3,31.4,30.17,NE,46,0.0,0.0,79,0.00,,---,0.00,VWS V14.01,2013-01-08 10:32:00,
2013-01-08 02:37:00,36.9,31.3,30.17,NE,46,0.0,0.0,80,0.00,,---,0.00,VWS V14.01,2013-01-08 10:37:00,
2013-01-08 02:42:00,36.4,31.1,30.17,NE,49,0.0,0.0,81,0.00,,---,0.00,VWS V14.01,2013-01-08 10:42:00,
2013-01-08 02:45:00,36.3,31.3,30.17,NE,53,0.0,0.0,82,0.00,,---,0.00,VWS V14.01,2013-01-08 10:45:00,
2013-01-08 02:47:00,36.1,31.1,30.17,ENE,57,4.0,4.0,82,0.00,,---,0.00,VWS V14.01,2013-01-08 10:47:00,
2013-01-08 02:52:00,35.9,31.2,30.17,NE,49,0.0,4.0,83,0.00,,---,0.00,VWS V14.01,2013-01-08 10:52:00,
2013-01-08 02:57:00,36.1,31.5,30.17,NNE,25,3.0,4.0,83,0.00,,---,0.00,VWS V14.01,2013-01-08 10:57:00,
2013-01-08 03:00:00,36.1,31.5,30.16,NE,40,0.0,5.0,83,0.00,,---,0.00,VWS V14.01,2013-01-08 11:00:00,
2013-01-08 03:02:00,36.2,31.5,30.17,NE,40,0.0,0.0,83,0.00,,---,0.00,VWS V14.01,2013-01-08 11:02:00,
2013-01-08 03:07:00,36.5,31.5,30.17,NE,40,0.0,0.0,82,0.00,,---,0.00,VWS V14.01,2013-01-08 11:07:00,
2013-01-08 03:12:00,36.9,31.9,30.17,NE,44,0.0,1.0,82,0.00,,---,0.00,VWS V14.01,2013-01-08 11:12:00,
2013-01-08 03:15:00,36.8,31.8,30.16,NE,44,0.0,2.0,82,0.00,,---,0.00,VWS V14.01,2013-01-08 11:15:00,
2013-01-08 03:17:00,36.7,31.7,30.16,NE,45,0.0,0.0,82,0.00,,---,0.00,VWS V14.01,2013-01-08 11:17:00,
2013-01-08 03:22:00,37.0,31.7,30.16,NE,56,3.0,5.0,81,0.00,,---,0.00,VWS V14.01,2013-01-08 11:22:00,
2013-01-08 03:27:00,36.8,31.5,30.16,NE,55,3.0,5.0,81,0.00,,---,0.00,VWS V14.01,2013-01-08 11:27:00,
2013-01-08 03:30:00,36.5,31.5,30.16,NE,55,2.0,5.0,82,0.00,,---,0.00,VWS V14.01,2013-01-08 11:30:00,
2013-01-08 03:32:00,36.3,31.3,30.16,NE,55,3.0,4.0,82,0.00,,---,0.00,VWS V14.01,2013-01-08 11:32:00,
2013-01-08 03:37:00,36.2,31.5,30.16,NE,53,3.0,5.0,83,0.00,,---,0.00,VWS V14.01,2013-01-08 11:37:00,
2013-01-08 03:42:00,35.9,31.5,30.16,NE,53,0.0,5.0,84,0.00,,---,0.00,VWS V14.01,2013-01-08 11:42:00,
2013-01-08 03:45:00,35.9,31.5,30.16,NE,54,0.0,5.0,84,0.00,,---,0.00,VWS V14.01,2013-01-08 11:45:00,
2013-01-08 03:47:00,35.9,31.5,30.16,NE,53,0.0,0.0,84,0.00,,---,0.00,VWS V14.01,2013-01-08 11:47:00,
2013-01-08 03:52:00,36.0,31.6,30.15,NE,55,4.0,5.0,84,0.00,,---,0.00,VWS V14.01,2013-01-08 11:52:00,
2013-01-08 03:57:00,36.1,31.7,30.15,NE,49,5.0,5.0,84,0.00,,---,0.00,VWS V14.01,2013-01-08 11:57:00,
2013-01-08 04:00:00,36.3,31.6,30.14,NE,49,4.0,6.0,83,0.00,,---,0.00,VWS V14.01,2013-01-08 12:00:00,
2013-01-08 04:02:00,36.2,31.5,30.14,NE,51,4.0,5.0,83,0.00,,---,0.00,VWS V14.01,2013-01-08 12:02:00,
2013-01-08 04:07:00,36.6,31.9,30.15,NE,44,2.0,6.0,83,0.00,,---,0.00,VWS V14.01,2013-01-08 12:07:00,
2013-01-08 04:12:00,36.4,31.7,30.14,NE,44,0.0,6.0,83,0.00,,---,0.00,VWS V14.01,2013-01-08 12:12:00,
2013-01-08 04:15:00,36.1,31.5,30.14,NE,44,0.0,6.0,83,0.00,,---,0.00,VWS V14.01,2013-01-08 12:15:00,
2013-01-08 04:17:00,36.1,31.5,30.14,NE,44,0.0,0.0,83,0.00,,---,0.00,VWS V14.01,2013-01-08 12:17:00,
2013-01-08 04:22:00,36.0,31.6,30.14,NE,44,0.0,0.0,84,0.00,,---,0.00,VWS V14.01,2013-01-08 12:22:00,
2013-01-08 04:27:00,36.2,31.5,30.14,NE,45,0.0,0.0,83,0.00,,---,0.00,VWS V14.01,2013-01-08 12:27:00,
2013-01-08 04:30:00,36.2,31.5,30.14,NE,45,0.0,0.0,83,0.00,,---,0.00,VWS V14.01,2013-01-08 12:30:00,
2013-01-08 04:32:00,36.1,31.7,30.14,NE,45,0.0,0.0,84,0.00,,---,0.00,VWS V14.01,2013-01-08 12:32:00,
2013-01-08 04:37:00,36.0,31.6,30.14,NE,44,3.0,5.0,84,0.00,,---,0.00,VWS V14.01,2013-01-08 12:37:00,
2013-01-08 04:42:00,35.7,31.6,30.14,NE,40,0.0,5.0,85,0.00,,---,0.00,VWS V14.01,2013-01-08 12:42:00,
2013-01-08 04:45:00,35.5,31.5,30.14,NE,36,0.0,5.0,85,0.00,,---,0.00,VWS V14.01,2013-01-08 12:45:00,
2013-01-08 04:47:00,35.5,31.5,30.14,NE,36,0.0,0.0,85,0.00,,---,0.00,VWS V14.01,2013-01-08 12:47:00,
2013-01-08 04:52:00,35.4,31.4,30.14,NE,36,0.0,0.0,85,0.00,,---,0.00,VWS V14.01,2013-01-08 12:52:00,
2013-01-08 04:57:00,35.8,31.7,30.14,NE,36,0.0,0.0,85,0.00,,---,0.00,VWS V14.01,2013-01-08 12:57:00,
2013-01-08 05:00:00,36.0,31.6,30.14,SW,235,3.0,5.0,84,0.00,,---,0.00,VWS V14.01,2013-01-08 13:00:00,
2013-01-08 05:02:00,35.9,31.5,30.14,SW,234,3.0,4.0,84,0.00,,---,0.00,VWS V14.01,2013-01-08 13:02:00,
2013-01-08 05:07:00,35.4,31.4,30.14,SW,233,0.0,4.0,85,0.00,,---,0.00,VWS V14.01,2013-01-08 13:07:00,
2013-01-08 05:12:00,35.7,31.6,30.14,SSW,208,0.0,4.0,85,0.00,,---,0.00,VWS V14.01,2013-01-08 13:12:00,
2013-01-08 05:15:00,35.9,31.8,30.14,SSW,207,0.0,4.0,85,0.00,,---,0.00,VWS V14.01,2013-01-08 13:15:00,
2013-01-08 05:17:00,35.9,31.8,30.14,SSW,208,0.0,0.0,85,0.00,,---,0.00,VWS V14.01,2013-01-08 13:17:00,
2013-01-08 05:22:00,35.9,31.5,30.14,SSW,211,0.0,0.0,84,0.00,,---,0.00,VWS V14.01,2013-01-08 13:22:00,
2013-01-08 05:27:00,35.9,31.5,30.13,SSW,210,1.0,2.0,84,0.00,,---,0.00,VWS V14.01,2013-01-08 13:27:00,
2013-01-08 05:30:00,36.1,31.7,30.13,SSW,211,0.0,2.0,84,0.00,,---,0.00,VWS V14.01,2013-01-08 13:30:00,
2013-01-08 05:32:00,36.2,31.8,30.13,SSW,210,0.0,0.0,84,0.00,,---,0.00,VWS V14.01,2013-01-08 13:32:00,
2013-01-08 05:37:00,36.4,32.0,30.13,SSW,210,0.0,0.0,84,0.00,,---,0.00,VWS V14.01,2013-01-08 13:37:00,
2013-01-08 05:42:00,36.2,31.5,30.14,SSW,211,0.0,0.0,83,0.00,,---,0.00,VWS V14.01,2013-01-08 13:42:00,
2013-01-08 05:45:00,36.1,31.7,30.14,SSW,210,0.0,0.0,84,0.00,,---,0.00,VWS V14.01,2013-01-08 13:45:00,
2013-01-08 05:47:00,36.2,31.8,30.14,SSW,211,0.0,0.0,84,0.00,,---,0.00,VWS V14.01,2013-01-08 13:47:00,
2013-01-08 05:52:00,36.3,31.6,30.14,SSW,211,0.0,0.0,83,0.00,,---,0.00,VWS V14.01,2013-01-08 13:52:00,
2013-01-08 05:57:00,36.3,31.9,30.14,SSW,211,0.0,0.0,84,0.00,,---,0.00,VWS V14.01,2013-01-08 13:57:00,
2013-01-08 06:00:00,36.4,32.0,30.14,SSW,211,0.0,0.0,84,0.00,,---,0.00,VWS V14.01,2013-01-08 14:00:00,
2013-01-08 06:01:00,36.4,31.7,30.13,SSW,210,0.0,0.0,83,0.00,,---,0.00,VWS V14.01,2013-01-08 14:01:00,
2013-01-08 06:06:00,36.2,31.8,30.14,SSW,210,0.0,0.0,84,0.00,,---,0.00,VWS V14.01,2013-01-08 14:06:00,
2013-01-08 06:11:00,36.2,31.8,30.13,SSW,210,0.0,0.0,84,0.00,,---,0.00,VWS V14.01,2013-01-08 14:11:00,
2013-01-08 06:15:00,36.0,31.6,30.13,SSW,211,0.0,0.0,84,0.00,,---,0.00,VWS V14.01,2013-01-08 14:15:00,
2013-01-08 06:16:00,35.8,31.5,30.13,SSW,211,0.0,0.0,84,0.00,,---,0.00,VWS V14.01,2013-01-08 14:16:00,
2013-01-08 06:21:00,35.4,31.4,30.13,SSW,210,0.0,0.0,85,0.00,,---,0.00,VWS V14.01,2013-01-08 14:21:00,
2013-01-08 06:26:00,35.2,31.4,30.13,SSW,211,0.0,0.0,86,0.00,,---,0.00,VWS V14.01,2013-01-08 14:26:00,
2013-01-08 06:30:00,35.1,31.3,30.13,SW,221,0.0,0.0,86,0.00,,---,0.00,VWS V14.01,2013-01-08 14:30:00,
2013-01-08 06:31:00,35.1,31.3,30.13,SW,221,2.0,2.0,86,0.00,,---,0.00,VWS V14.01,2013-01-08 14:31:00,
2013-01-08 06:36:00,35.0,31.5,30.13,SW,221,0.0,2.0,87,0.00,,---,0.00,VWS V14.01,2013-01-08 14:36:00,
2013-01-08 06:41:00,34.9,31.4,30.13,SW,221,0.0,2.0,87,0.00,,---,0.00,VWS V14.01,2013-01-08 14:41:00,
2013-01-08 06:45:00,35.0,31.5,30.13,SW,221,0.0,2.0,87,0.00,,---,0.00,VWS V14.01,2013-01-08 14:45:00,
2013-01-08 06:46:00,35.0,31.5,30.13,SW,221,0.0,0.0,87,0.00,,---,0.00,VWS V14.01,2013-01-08 14:46:00,
2013-01-08 06:51:00,35.1,31.6,30.13,SW,221,0.0,0.0,87,0.00,,---,0.00,VWS V14.01,2013-01-08 14:51:00,
2013-01-08 06:56:00,35.2,31.7,30.13,SW,221,0.0,0.0,87,0.00,,---,0.00,VWS V14.01,2013-01-08 14:56:00,
2013-01-08 07:00:00,35.2,31.4,30.13,SW,221,0.0,0.0,86,0.00,,---,0.00,VWS V14.01,2013-01-08 15:00:00,
2013-01-08 07:01:00,35.2,31.4,30.13,SW,221,0.0,0.0,86,0.00,,---,0.00,VWS V14.01,2013-01-08 15:01:00,
2013-01-08 07:06:00,35.2,31.4,30.13,SW,221,0.0,0.0,86,0.00,,---,0.00,VWS V14.01,2013-01-08 15:06:00,
2013-01-08 07:11:00,35.0,31.5,30.13,SW,217,0.0,0.0,87,0.00,,---,0.00,VWS V14.01,2013-01-08 15:11:00,
2013-01-08 07:15:00,35.1,31.6,30.13,SW,217,0.0,0.0,87,0.00,,---,0.00,VWS V14.01,2013-01-08 15:15:00,
2013-01-08 07:16:00,35.1,31.6,30.13,SW,217,0.0,0.0,87,0.00,,---,0.00,VWS V14.01,2013-01-08 15:16:00,
2013-01-08 07:21:00,35.1,31.6,30.13,SW,216,0.0,0.0,87,0.00,,---,0.00,VWS V14.01,2013-01-08 15:21:00,
2013-01-08 07:26:00,35.2,31.4,30.13,SW,216,0.0,0.0,86,0.00,,---,0.00,VWS V14.01,2013-01-08 15:26:00,
2013-01-08 07:30:00,35.4,31.6,30.13,SW,216,0.0,0.0,86,0.00,,---,0.00,VWS V14.01,2013-01-08 15:30:00,
2013-01-08 07:31:00,35.4,31.6,30.13,SW,217,0.0,0.0,86,0.00,,---,0.00,VWS V14.01,2013-01-08 15:31:00,
2013-01-08 07:36:00,35.4,31.6,30.13,SW,215,0.0,0.0,86,0.00,,---,0.00,VWS V14.01,2013-01-08 15:36:00,
2013-01-08 07:41:00,35.2,31.4,30.13,NE,36,0.0,0.0,86,0.00,,---,0.00,VWS V14.01,2013-01-08 15:41:00,
2013-01-08 07:45:00,35.2,31.4,30.13,NE,36,0.0,0.0,86,0.00,,---,0.00,VWS V14.01,2013-01-08 15:45:00,
2013-01-08 07:46:00,35.2,31.4,30.13,NE,36,0.0,0.0,86,0.00,,---,0.00,VWS V14.01,2013-01-08 15:46:00,
2013-01-08 07:51:00,35.3,31.8,30.14,NE,36,0.0,0.0,87,0.00,,---,0.00,VWS V14.01,2013-01-08 15:51:00,
2013-01-08 07:56:00,35.5,31.7,30.13,NE,36,0.0,0.0,86,0.00,,---,0.00,VWS V14.01,2013-01-08 15:56:00,
2013-01-08 08:00:00,35.5,31.7,30.13,NE,37,0.0,0.0,86,0.00,,---,0.00,VWS V14.01,2013-01-08 16:00:00,
2013-01-08 08:01:00,35.5,31.7,30.13,NE,37,0.0,0.0,86,0.00,,---,0.00,VWS V14.01,2013-01-08 16:01:00,
2013-01-08 08:06:00,35.3,31.8,30.13,NE,37,0.0,0.0,87,0.00,,---,0.00,VWS V14.01,2013-01-08 16:06:00,
2013-01-08 08:11:00,35.2,31.7,30.14,NE,36,0.0,0.0,87,0.00,,---,0.00,VWS V14.01,2013-01-08 16:11:00,
2013-01-08 08:15:00,35.0,31.5,30.14,NE,36,0.0,0.0,87,0.00,,---,0.00,VWS V14.01,2013-01-08 16:15:00,
2013-01-08 08:16:00,34.9,31.4,30.14,NE,36,0.0,0.0,87,0.00,,---,0.00,VWS V14.01,2013-01-08 16:16:00,
2013-01-08 08:21:00,34.8,31.3,30.14,NE,36,0.0,0.0,87,0.00,,---,0.00,VWS V14.01,2013-01-08 16:21:00,
2013-01-08 08:27:00,34.6,31.4,30.14,NE,36,0.0,0.0,88,0.00,,---,0.00,VWS V14.01,2013-01-08 16:27:00,
2013-01-08 08:30:00,34.4,31.2,30.15,NE,36,0.0,0.0,88,0.00,,---,0.00,VWS V14.01,2013-01-08 16:30:00,
2013-01-08 08:32:00,34.4,31.2,30.15,NE,36,0.0,0.0,88,0.00,,---,0.00,VWS V14.01,2013-01-08 16:32:00,
2013-01-08 08:37:00,34.4,31.5,30.15,NE,36,0.0,0.0,89,0.00,,---,0.00,VWS V14.01,2013-01-08 16:37:00,
2013-01-08 08:42:00,34.4,31.5,30.15,NE,36,0.0,0.0,89,0.00,,---,0.00,VWS V14.01,2013-01-08 16:42:00,
2013-01-08 08:45:00,34.4,31.5,30.15,NE,36,0.0,0.0,89,0.00,,---,0.00,VWS V14.01,2013-01-08 16:45:00,
2013-01-08 08:47:00,34.4,31.5,30.15,NE,36,0.0,0.0,89,0.00,,---,0.00,VWS V14.01,2013-01-08 16:47:00,
2013-01-08 08:52:00,34.5,31.6,30.15,NE,36,0.0,0.0,89,0.00,,---,0.00,VWS V14.01,2013-01-08 16:52:00,
2013-01-08 08:57:00,34.9,31.7,30.15,NE,36,0.0,0.0,88,0.00,,---,0.00,VWS V14.01,2013-01-08 16:57:00,
2013-01-08 09:00:00,35.2,32.0,30.15,NE,36,0.0,0.0,88,0.00,,---,0.00,VWS V14.01,2013-01-08 17:00:00,
2013-01-08 09:02:00,35.3,32.1,30.15,NE,36,0.0,0.0,88,0.00,,---,0.00,VWS V14.01,2013-01-08 17:02:00,
2013-01-08 09:07:00,35.5,32.0,30.15,NNW,341,0.0,0.0,87,0.00,,---,0.00,VWS V14.01,2013-01-08 17:07:00,
2013-01-08 09:12:00,35.3,31.8,30.15,NNW,341,0.0,0.0,87,0.00,,---,0.00,VWS V14.01,2013-01-08 17:12:00,
2013-01-08 09:15:00,35.3,31.8,30.15,NNW,341,0.0,0.0,87,0.00,,---,0.00,VWS V14.01,2013-01-08 17:15:00,
2013-01-08 09:17:00,35.3,31.8,30.16,NNW,341,0.0,0.0,87,0.00,,---,0.00,VWS V14.01,2013-01-08 17:17:00,
2013-01-08 09:22:00,35.3,31.8,30.16,NNW,341,0.0,0.0,87,0.00,,---,0.00,VWS V14.01,2013-01-08 17:22:00,
2013-01-08 09:27:00,35.3,31.8,30.16,NNW,341,0.0,0.0,87,0.00,,---,0.00,VWS V14.01,2013-01-08 17:27:00,
2013-01-08 09:30:00,35.2,32.0,30.16,NNW,341,0.0,0.0,88,0.00,,---,0.00,VWS V14.01,2013-01-08 17:30:00,
2013-01-08 09:32:00,35.2,32.0,30.16,NNW,341,0.0,0.0,88,0.00,,---,0.00,VWS V14.01,2013-01-08 17:32:00,
2013-01-08 09:37:00,35.2,32.0,30.16,NNW,341,0.0,0.0,88,0.00,,---,0.00,VWS V14.01,2013-01-08 17:37:00,
2013-01-08 09:42:00,35.2,32.0,30.16,NNW,341,0.0,0.0,88,0.00,,---,0.00,VWS V14.01,2013-01-08 17:42:00,
2013-01-08 09:45:00,35.2,32.0,30.16,NNW,341,0.0,0.0,88,0.00,,---,0.00,VWS V14.01,2013-01-08 17:45:00,
2013-01-08 09:47:00,35.2,32.0,30.16,NNW,341,0.0,0.0,88,0.00,,---,0.00,VWS V14.01,2013-01-08 17:47:00,
2013-01-08 09:52:00,35.3,32.1,30.16,NNW,341,0.0,0.0,88,0.00,,---,0.00,VWS V14.01,2013-01-08 17:52:00,
2013-01-08 09:57:00,35.5,32.3,30.16,West,265,0.0,1.0,88,0.00,,---,0.00,VWS V14.01,2013-01-08 17:57:00,
2013-01-08 10:00:00,35.6,32.4,30.16,SSW,210,0.0,3.0,88,0.00,,---,0.00,VWS V14.01,2013-01-08 18:00:00,
2013-01-08 10:02:00,35.6,32.4,30.16,SSW,210,0.0,0.0,88,0.00,,---,0.00,VWS V14.01,2013-01-08 18:02:00,
2013-01-08 10:07:00,35.6,32.4,30.16,SSW,200,0.0,0.0,88,0.00,,---,0.00,VWS V14.01,2013-01-08 18:07:00,
2013-01-08 10:12:00,35.8,32.3,30.16,SSW,202,0.0,1.0,87,0.00,,---,0.00,VWS V14.01,2013-01-08 18:12:00,
2013-01-08 10:15:00,36.0,32.8,30.16,SSW,202,0.0,1.0,88,0.00,,---,0.00,VWS V14.01,2013-01-08 18:15:00,
2013-01-08 10:17:00,36.2,33.0,30.16,SSW,202,0.0,0.0,88,0.00,,---,0.00,VWS V14.01,2013-01-08 18:17:00,
2013-01-08 10:22:00,36.5,33.0,30.16,SSW,202,0.0,0.0,87,0.00,,---,0.00,VWS V14.01,2013-01-08 18:22:00,
2013-01-08 10:27:00,36.5,33.0,30.15,SSW,202,0.0,0.0,87,0.00,,---,0.00,VWS V14.01,2013-01-08 18:27:00,
2013-01-08 10:30:00,36.6,33.1,30.15,SSW,202,0.0,0.0,87,0.00,,---,0.00,VWS V14.01,2013-01-08 18:30:00,
2013-01-08 10:32:00,36.7,32.9,30.15,West,269,0.0,0.0,86,0.00,,---,0.00,VWS V14.01,2013-01-08 18:32:00,
2013-01-08 10:37:00,37.0,33.2,30.15,South,179,0.0,4.0,86,0.00,,---,0.00,VWS V14.01,2013-01-08 18:37:00,
2013-01-08 10:42:00,37.5,33.7,30.15,South,179,0.0,4.0,86,0.00,,---,0.00,VWS V14.01,2013-01-08 18:42:00,
2013-01-08 10:45:00,37.9,33.8,30.15,South,179,0.0,4.0,85,0.00,,---,0.00,VWS V14.01,2013-01-08 18:45:00,
2013-01-08 10:47:00,38.0,33.9,30.15,South,179,0.0,0.0,85,0.00,,---,0.00,VWS V14.01,2013-01-08 18:47:00,
2013-01-08 10:52:00,38.0,33.6,30.15,South,180,0.0,1.0,84,0.00,,---,0.00,VWS V14.01,2013-01-08 18:52:00,
2013-01-08 10:57:00,38.3,33.6,30.15,South,180,0.0,1.0,83,0.00,,---,0.00,VWS V14.01,2013-01-08 18:57:00,
2013-01-08 11:00:00,38.6,33.9,30.15,South,180,0.0,1.0,83,0.00,,---,0.00,VWS V14.01,2013-01-08 19:00:00,
2013-01-08 11:01:00,38.8,34.1,30.15,South,180,0.0,0.0,83,0.00,,---,0.00,VWS V14.01,2013-01-08 19:01:00,
2013-01-08 11:06:00,39.3,34.3,30.15,SW,222,0.0,0.0,82,0.00,,---,0.00,VWS V14.01,2013-01-08 19:06:00,
2013-01-08 11:11:00,39.5,34.5,30.15,SW,222,0.0,0.0,82,0.00,,---,0.00,VWS V14.01,2013-01-08 19:11:00,
2013-01-08 11:15:00,39.7,34.7,30.14,SW,223,0.0,0.0,82,0.00,,---,0.00,VWS V14.01,2013-01-08 19:15:00,
2013-01-08 11:16:00,39.9,34.5,30.14,SW,223,0.0,0.0,81,0.00,,---,0.00,VWS V14.01,2013-01-08 19:16:00,
2013-01-08 11:22:00,40.7,35.6,30.14,SW,223,0.0,0.0,82,0.00,,---,0.00,VWS V14.01,2013-01-08 19:22:00,
2013-01-08 11:27:00,41.1,35.1,30.14,SW,223,0.0,0.0,79,0.00,,---,0.00,VWS V14.01,2013-01-08 19:27:00,
2013-01-08 11:30:00,41.1,35.1,30.14,SW,222,0.0,0.0,79,0.00,,---,0.00,VWS V14.01,2013-01-08 19:30:00,
2013-01-08 11:32:00,41.2,35.2,30.14,SW,222,0.0,0.0,79,0.00,,---,0.00,VWS V14.01,2013-01-08 19:32:00,
2013-01-08 11:37:00,41.6,35.9,30.13,NE,46,4.0,4.0,80,0.00,,---,0.00,VWS V14.01,2013-01-08 19:37:00,
2013-01-08 11:42:00,41.3,35.3,30.12,East,79,1.0,5.0,79,0.00,,---,0.00,VWS V14.01,2013-01-08 19:42:00,
2013-01-08 11:45:00,41.8,36.1,30.12,East,99,4.0,7.0,80,0.00,,---,0.00,VWS V14.01,2013-01-08 19:45:00,
2013-01-08 11:47:00,42.7,37.0,30.12,East,99,0.0,6.0,80,0.00,,---,0.00,VWS V14.01,2013-01-08 19:47:00,
2013-01-08 11:52:00,44.5,37.8,30.11,SE,132,0.0,6.0,77,0.00,,---,0.00,VWS V14.01,2013-01-08 19:52:00,
2013-01-08 11:57:00,45.6,37.8,30.11,SE,130,0.0,6.0,74,0.00,,---,0.00,VWS V14.01,2013-01-08 19:57:00,
2013-01-08 12:00:00,46.1,37.9,30.11,SE,130,0.0,6.0,73,0.00,,---,0.00,VWS V14.01,2013-01-08 20:00:00,
2013-01-08 12:02:00,46.3,38.1,30.11,SE,130,0.0,0.0,73,0.00,,---,0.00,VWS V14.01,2013-01-08 20:02:00,
2013-01-08 12:07:00,46.8,38.6,30.11,SSW,211,0.0,6.0,73,0.00,,---,0.00,VWS V14.01,2013-01-08 20:07:00,
2013-01-08 12:12:00,47.2,38.3,30.11,WNW,288,0.0,6.0,71,0.00,,---,0.00,VWS V14.01,2013-01-08 20:12:00,
2013-01-08 12:15:00,47.5,38.6,30.11,WNW,288,0.0,6.0,71,0.00,,---,0.00,VWS V14.01,2013-01-08 20:15:00,
2013-01-08 12:17:00,47.6,38.7,30.11,West,277,0.0,0.0,71,0.00,,---,0.00,VWS V14.01,2013-01-08 20:17:00,
2013-01-08 12:22:00,47.7,38.4,30.11,WNW,294,0.0,0.0,70,0.00,,---,0.00,VWS V14.01,2013-01-08 20:22:00,
2013-01-08 12:27:00,47.6,38.0,30.10,SSE,165,12.0,12.0,69,0.00,,---,0.00,VWS V14.01,2013-01-08 20:27:00,
2013-01-08 12:30:00,47.6,38.0,30.10,South,184,7.0,12.0,69,0.00,,---,0.00,VWS V14.01,2013-01-08 20:30:00,
2013-01-08 12:32:00,47.4,37.8,30.10,South,190,11.0,13.0,69,0.00,,---,0.00,VWS V14.01,2013-01-08 20:32:00,
2013-01-08 12:37:00,47.1,37.8,30.10,South,180,12.0,14.0,70,0.00,,---,0.00,VWS V14.01,2013-01-08 20:37:00,
2013-01-08 12:42:00,47.4,37.8,30.09,South,179,16.0,20.0,69,0.00,,---,0.00,VWS V14.01,2013-01-08 20:42:00,
2013-01-08 12:45:00,47.7,37.7,30.09,South,189,15.0,20.0,68,0.00,,---,0.00,VWS V14.01,2013-01-08 20:45:00,
2013-01-08 12:47:00,47.6,37.6,30.09,SSW,210,13.0,17.0,68,0.00,,---,0.00,VWS V14.01,2013-01-08 20:47:00,
2013-01-08 12:52:00,46.9,37.6,30.09,South,190,15.0,17.0,70,0.00,,---,0.00,VWS V14.01,2013-01-08 20:52:00,
2013-01-08 12:57:00,46.9,37.6,30.09,South,178,13.0,21.0,70,0.00,,---,0.00,VWS V14.01,2013-01-08 20:57:00,
2013-01-08 13:00:00,47.1,37.5,30.09,SSE,167,10.0,21.0,69,0.00,,---,0.00,VWS V14.01,2013-01-08 21:00:00,
2013-01-08 13:02:00,47.0,37.4,30.09,South,185,14.0,14.0,69,0.00,,---,0.00,VWS V14.01,2013-01-08 21:02:00,
2013-01-08 13:07:00,47.0,37.4,30.09,SSW,194,5.0,14.0,69,0.00,,---,0.00,VWS V14.01,2013-01-08 21:07:00,
2013-01-08 13:12:00,46.9,37.3,30.08,SSW,192,9.0,14.0,69,0.00,,---,0.00,VWS V14.01,2013-01-08 21:12:00,
2013-01-08 13:15:00,46.9,37.3,30.08,SW,217,7.0,14.0,69,0.00,,---,0.00,VWS V14.01,2013-01-08 21:15:00,
2013-01-08 13:17:00,46.9,37.3,30.08,South,185,8.0,15.0,69,0.00,,---,0.00,VWS V14.01,2013-01-08 21:17:00,
2013-01-08 13:22:00,47.2,37.6,30.08,South,183,7.0,15.0,69,0.00,,---,0.00,VWS V14.01,2013-01-08 21:22:00,
2013-01-08 13:27:00,47.6,37.6,30.09,South,182,10.0,15.0,68,0.00,,---,0.00,VWS V14.01,2013-01-08 21:27:00,
2013-01-08 13:30:00,47.8,37.8,30.09,SSE,164,8.0,15.0,68,0.00,,---,0.00,VWS V14.01,2013-01-08 21:30:00,
2013-01-08 13:32:00,47.9,37.9,30.09,South,169,11.0,13.0,68,0.00,,---,0.00,VWS V14.01,2013-01-08 21:32:00,
2013-01-08 13:37:00,47.9,37.9,30.08,South,179,4.0,14.0,68,0.00,,---,0.00,VWS V14.01,2013-01-08 21:37:00,
2013-01-08 13:42:00,48.0,38.0,30.08,South,188,11.0,14.0,68,0.00,,---,0.00,VWS V14.01,2013-01-08 21:42:00,
2013-01-08 13:45:00,48.5,38.1,30.08,South,188,12.0,20.0,67,0.00,,---,0.00,VWS V14.01,2013-01-08 21:45:00,
2013-01-08 13:47:00,48.6,38.2,30.08,SSE,157,14.0,19.0,67,0.00,,---,0.00,VWS V14.01,2013-01-08 21:47:00,
2013-01-08 13:52:00,48.8,38.0,30.07,SSE,166,9.0,19.0,66,0.00,,---,0.00,VWS V14.01,2013-01-08 21:52:00,
2013-01-08 13:57:00,48.8,38.0,30.07,South,181,10.0,19.0,66,0.00,,---,0.00,VWS V14.01,2013-01-08 21:57:00,
2013-01-08 14:00:00,48.9,38.1,30.08,SSE,159,14.0,19.0,66,0.00,,---,0.00,VWS V14.01,2013-01-08 22:00:00,
2013-01-08 14:02:00,49.0,38.2,30.08,SSE,153,7.0,14.0,66,0.00,,---,0.00,VWS V14.01,2013-01-08 22:02:00,
2013-01-08 14:07:00,49.1,38.2,30.07,SSE,158,2.0,14.0,66,0.00,,---,0.00,VWS V14.01,2013-01-08 22:07:00,
2013-01-08 14:12:00,49.0,38.2,30.08,SSE,163,8.0,14.0,66,0.00,,---,0.00,VWS V14.01,2013-01-08 22:12:00,
2013-01-08 14:15:00,49.2,38.0,30.08,SSE,152,5.0,14.0,65,0.00,,---,0.00,VWS V14.01,2013-01-08 22:15:00,
2013-01-08 14:17:00,49.2,38.3,30.08,SSE,158,4.0,10.0,66,0.00,,---,0.00,VWS V14.01,2013-01-08 22:17:00,
2013-01-08 14:22:00,49.2,38.3,30.08,SSE,150,0.0,10.0,66,0.00,,---,0.00,VWS V14.01,2013-01-08 22:22:00,
2013-01-08 14:27:00,49.4,38.5,30.07,SSE,152,0.0,10.0,66,0.00,,---,0.00,VWS V14.01,2013-01-08 22:27:00,
2013-01-08 14:30:00,49.5,38.6,30.07,SE,144,0.0,10.0,66,0.00,,---,0.00,VWS V14.01,2013-01-08 22:30:00,
2013-01-08 14:32:00,49.4,38.5,30.08,SSE,163,0.0,5.0,66,0.00,,---,0.00,VWS V14.01,2013-01-08 22:32:00,
2013-01-08 14:37:00,49.5,38.2,30.07,South,188,8.0,10.0,65,0.00,,---,0.00,VWS V14.01,2013-01-08 22:37:00,
2013-01-08 14:42:00,49.7,38.0,30.07,South,182,3.0,11.0,64,0.00,,---,0.00,VWS V14.01,2013-01-08 22:42:00,
2013-01-08 14:45:00,49.8,38.5,30.07,SE,128,13.0,13.0,65,0.00,,---,0.00,VWS V14.01,2013-01-08 22:45:00,
2013-01-08 14:47:00,49.7,38.0,30.07,SSE,167,4.0,13.0,64,0.00,,---,0.00,VWS V14.01,2013-01-08 22:47:00,
2013-01-08 14:52:00,49.9,38.2,30.07,South,184,9.0,14.0,64,0.00,,---,0.00,VWS V14.01,2013-01-08 22:52:00,
2013-01-08 14:57:00,49.8,38.1,30.07,SSE,163,2.0,14.0,64,0.00,,---,0.00,VWS V14.01,2013-01-08 22:57:00,
2013-01-08 15:00:00,49.6,37.9,30.07,SSE,156,9.0,14.0,64,0.00,,---,0.00,VWS V14.01,2013-01-08 23:00:00,
2013-01-08 15:02:00,49.6,37.9,30.07,South,184,6.0,10.0,64,0.00,,---,0.00,VWS V14.01,2013-01-08 23:02:00,
2013-01-08 15:07:00,49.3,38.0,30.07,South,182,5.0,13.0,65,0.00,,---,0.00,VWS V14.01,2013-01-08 23:07:00,
2013-01-08 15:12:00,49.3,37.7,30.08,SSE,159,7.0,13.0,64,0.00,,---,0.00,VWS V14.01,2013-01-08 23:12:00,
2013-01-08 15:15:00,49.2,38.0,30.08,South,180,4.0,13.0,65,0.00,,---,0.00,VWS V14.01,2013-01-08 23:15:00,
2013-01-08 15:17:00,49.2,38.0,30.08,South,170,0.0,6.0,65,0.00,,---,0.00,VWS V14.01,2013-01-08 23:17:00,
2013-01-08 15:22:00,48.6,37.4,30.08,SSE,157,5.0,11.0,65,0.00,,---,0.00,VWS V14.01,2013-01-08 23:22:00,
2013-01-08 15:27:00,48.2,37.0,30.08,SSE,165,9.0,13.0,65,0.00,,---,0.00,VWS V14.01,2013-01-08 23:27:00,
2013-01-08 15:30:00,48.3,37.1,30.08,South,178,9.0,13.0,65,0.00,,---,0.00,VWS V14.01,2013-01-08 23:30:00,
2013-01-08 15:32:00,48.1,37.3,30.07,South,169,9.0,10.0,66,0.00,,---,0.00,VWS V14.01,2013-01-08 23:32:00,
2013-01-08 15:37:00,47.9,37.1,30.07,South,169,7.0,13.0,66,0.00,,---,0.00,VWS V14.01,2013-01-08 23:37:00,
2013-01-08 15:42:00,47.9,37.1,30.07,SSE,151,5.0,13.0,66,0.00,,---,0.00,VWS V14.01,2013-01-08 23:42:00,
2013-01-08 15:45:00,48.3,37.5,30.07,South,173,8.0,13.0,66,0.00,,---,0.00,VWS V14.01,2013-01-08 23:45:00,
2013-01-08 15:47:00,48.4,37.6,30.07,SSE,160,6.0,9.0,66,0.00,,---,0.00,VWS V14.01,2013-01-08 23:47:00,
2013-01-08 15:52:00,48.4,37.2,30.07,SSE,162,8.0,10.0,65,0.00,,---,0.00,VWS V14.01,2013-01-08 23:52:00,
2013-01-08 15:57:00,48.1,37.3,30.07,SSE,160,8.0,11.0,66,0.00,,---,0.00,VWS V14.01,2013-01-08 23:57:00,
2013-01-08 16:00:00,48.3,37.1,30.07,SSE,163,0.0,11.0,65,0.00,,---,0.00,VWS V14.01,2013-01-09 00:00:00,
2013-01-08 16:02:00,48.2,37.4,30.07,South,190,0.0,0.0,66,0.00,,---,0.00,VWS V14.01,2013-01-09 00:02:00,
2013-01-08 16:07:00,47.9,37.1,30.07,South,175,7.0,8.0,66,0.00,,---,0.00,VWS V14.01,2013-01-09 00:07:00,
2013-01-08 16:12:00,47.5,36.7,30.06,South,179,5.0,12.0,66,0.00,,---,0.00,VWS V14.01,2013-01-09 00:12:00,
2013-01-08 16:15:00,47.2,36.4,30.06,SSE,163,2.0,12.0,66,0.00,,---,0.00,VWS V14.01,2013-01-09 00:15:00,
2013-01-08 16:17:00,47.0,36.6,30.06,SSE,151,9.0,9.0,67,0.00,,---,0.00,VWS V14.01,2013-01-09 00:17:00,
2013-01-08 16:22:00,47.0,36.2,30.06,SSE,159,5.0,9.0,66,0.00,,---,0.00,VWS V14.01,2013-01-09 00:22:00,
2013-01-08 16:27:00,46.1,36.1,30.06,SSE,157,5.0,10.0,68,0.00,,---,0.00,VWS V14.01,2013-01-09 00:27:00,
2013-01-08 16:30:00,45.6,35.7,30.06,SSE,155,2.0,10.0,68,0.00,,---,0.00,VWS V14.01,2013-01-09 00:30:00,
2013-01-08 16:32:00,45.5,35.9,30.06,SSE,155,6.0,8.0,69,0.00,,---,0.00,VWS V14.01,2013-01-09 00:32:00,
2013-01-08 16:37:00,45.4,35.8,30.06,SSE,155,4.0,8.0,69,0.00,,---,0.00,VWS V14.01,2013-01-09 00:37:00,
2013-01-08 16:42:00,44.7,35.9,30.06,SE,130,4.0,8.0,71,0.00,,---,0.00,VWS V14.01,2013-01-09 00:42:00,
2013-01-08 16:45:00,44.7,35.9,30.06,SE,136,4.0,8.0,71,0.00,,---,0.00,VWS V14.01,2013-01-09 00:45:00,
2013-01-08 16:47:00,44.7,35.9,30.06,SE,144,6.0,6.0,71,0.00,,---,0.00,VWS V14.01,2013-01-09 00:47:00,
2013-01-08 16:52:00,45.0,35.8,30.06,SE,140,5.0,7.0,70,0.00,,---,0.00,VWS V14.01,2013-01-09 00:52:00,
2013-01-08 16:57:00,45.3,35.7,30.06,SE,140,6.0,8.0,69,0.00,,---,0.00,VWS V14.01,2013-01-09 00:57:00,
2013-01-08 17:00:00,45.6,36.0,30.06,SE,138,4.0,8.0,69,0.00,,---,0.00,VWS V14.01,2013-01-09 01:00:00,
2013-01-08 17:02:00,45.6,36.0,30.06,SSE,149,5.0,7.0,69,0.00,,---,0.00,VWS V14.01,2013-01-09 01:02:00,
2013-01-08 17:07:00,45.1,35.5,30.06,SSE,153,6.0,10.0,69,0.00,,---,0.00,VWS V14.01,2013-01-09 01:07:00,
2013-01-08 17:12:00,44.8,35.6,30.06,SSE,159,5.0,10.0,70,0.00,,---,0.00,VWS V14.01,2013-01-09 01:12:00,
2013-01-08 17:15:00,44.4,35.2,30.06,SSE,157,4.0,10.0,70,0.00,,---,0.00,VWS V14.01,2013-01-09 01:15:00,
2013-01-08 17:17:00,44.1,35.0,30.06,SSE,157,0.0,5.0,70,0.00,,---,0.00,VWS V14.01,2013-01-09 01:17:00,
2013-01-08 17:22:00,43.7,34.9,30.06,SSE,152,0.0,5.0,71,0.00,,---,0.00,VWS V14.01,2013-01-09 01:22:00,
2013-01-08 17:27:00,43.3,34.9,30.06,SSE,152,0.0,5.0,72,0.00,,---,0.00,VWS V14.01,2013-01-09 01:27:00,
2013-01-08 17:30:00,42.6,34.6,30.06,SSE,152,0.0,5.0,73,0.00,,---,0.00,VWS V14.01,2013-01-09 01:30:00,
2013-01-08 17:32:00,42.2,34.2,30.05,SSE,152,0.0,0.0,73,0.00,,---,0.00,VWS V14.01,2013-01-09 01:32:00,
2013-01-08 17:37:00,40.9,33.3,30.05,SSE,152,0.0,0.0,74,0.00,,---,0.00,VWS V14.01,2013-01-09 01:37:00,
2013-01-08 17:42:00,40.2,33.2,30.05,SE,137,0.0,0.0,76,0.00,,---,0.00,VWS V14.01,2013-01-09 01:42:00,
2013-01-08 17:45:00,40.1,33.5,30.05,ENE,69,0.0,0.0,77,0.00,,---,0.00,VWS V14.01,2013-01-09 01:45:00,
2013-01-08 17:47:00,40.1,33.5,30.05,NE,42,3.0,3.0,77,0.00,,---,0.00,VWS V14.01,2013-01-09 01:47:00,
2013-01-08 17:52:00,41.0,34.0,30.05,NE,41,0.0,3.0,76,0.00,,---,0.00,VWS V14.01,2013-01-09 01:52:00,
2013-01-08 17:57:00,40.8,33.5,30.05,NE,43,0.0,3.0,75,0.00,,---,0.00,VWS V14.01,2013-01-09 01:57:00,
2013-01-08 18:00:00,40.5,33.5,30.05,NE,42,0.0,3.0,76,0.00,,---,0.00,VWS V14.01,2013-01-09 02:00:00,
2013-01-08 18:02:00,40.3,33.7,30.05,NE,53,1.0,2.0,77,0.00,,---,0.00,VWS V14.01,2013-01-09 02:02:00,
2013-01-08 18:07:00,40.0,33.4,30.05,NE,45,0.0,4.0,77,0.00,,---,0.00,VWS V14.01,2013-01-09 02:07:00,
2013-01-08 18:12:00,40.1,33.5,30.04,NE,47,0.0,4.0,77,0.00,,---,0.00,VWS V14.01,2013-01-09 02:12:00,
2013-01-08 18:15:00,39.9,33.3,30.04,NE,49,4.0,4.0,77,0.00,,---,0.00,VWS V14.01,2013-01-09 02:15:00,
2013-01-08 18:17:00,40.4,34.1,30.04,NE,51,4.0,5.0,78,0.00,,---,0.00,VWS V14.01,2013-01-09 02:17:00,
2013-01-08 18:22:00,41.7,34.4,30.04,NE,53,4.0,6.0,75,0.00,,---,0.00,VWS V14.01,2013-01-09 02:22:00,
2013-01-08 18:27:00,41.8,34.1,30.04,ENE,57,3.0,6.0,74,0.00,,---,0.00,VWS V14.01,2013-01-09 02:27:00,
2013-01-08 18:30:00,41.5,34.2,30.04,ENE,57,3.0,6.0,75,0.00,,---,0.00,VWS V14.01,2013-01-09 02:30:00,
2013-01-08 18:32:00,41.5,34.2,30.04,NE,51,3.0,5.0,75,0.00,,---,0.00,VWS V14.01,2013-01-09 02:32:00,
2013-01-08 18:37:00,41.5,34.2,30.04,ENE,58,4.0,6.0,75,0.00,,---,0.00,VWS V14.01,2013-01-09 02:37:00,
2013-01-08 18:42:00,42.3,34.6,30.03,ENE,65,4.0,8.0,74,0.00,,---,0.00,VWS V14.01,2013-01-09 02:42:00,
2013-01-08 18:45:00,42.8,34.8,30.03,East,84,5.0,8.0,73,0.00,,---,0.00,VWS V14.01,2013-01-09 02:45:00,
2013-01-08 18:47:00,43.1,35.0,30.03,ENE,65,4.0,5.0,73,0.00,,---,0.00,VWS V14.01,2013-01-09 02:47:00,
2013-01-08 18:52:00,43.9,35.1,30.03,ENE,76,5.0,6.0,71,0.00,,---,0.00,VWS V14.01,2013-01-09 02:52:00,
2013-01-08 18:57:00,43.6,34.5,30.03,ENE,64,1.0,6.0,70,0.00,,---,0.00,VWS V14.01,2013-01-09 02:57:00,
2013-01-08 19:00:00,42.7,34.0,30.03,NE,55,4.0,6.0,71,0.00,,---,0.00,VWS V14.01,2013-01-09 03:00:00,
2013-01-08 19:02:00,42.3,34.3,30.03,NE,54,3.0,4.0,73,0.00,,---,0.00,VWS V14.01,2013-01-09 03:02:00,
2013-01-08 19:07:00,41.7,33.7,30.03,ENE,63,2.0,4.0,73,0.00,,---,0.00,VWS V14.01,2013-01-09 03:07:00,
2013-01-08 19:12:00,42.1,34.4,30.04,ENE,63,4.0,5.0,74,0.00,,---,0.00,VWS V14.01,2013-01-09 03:12:00,
2013-01-08 19:15:00,42.3,33.9,30.03,NE,55,4.0,5.0,72,0.00,,---,0.00,VWS V14.01,2013-01-09 03:15:00,
2013-01-08 19:17:00,42.1,34.1,30.03,ENE,69,5.0,6.0,73,0.00,,---,0.00,VWS V14.01,2013-01-09 03:17:00,
2013-01-08 19:22:00,42.5,34.5,30.03,ENE,69,7.0,8.0,73,0.00,,---,0.00,VWS V14.01,2013-01-09 03:22:00,
2013-01-08 19:27:00,42.3,33.9,30.03,ENE,67,8.0,11.0,72,0.00,,---,0.00,VWS V14.01,2013-01-09 03:27:00,
2013-01-08 19:30:00,42.0,34.0,30.03,NE,56,7.0,11.0,73,0.00,,---,0.00,VWS V14.01,2013-01-09 03:30:00,
2013-01-08 19:32:00,41.5,33.5,30.03,NE,50,6.0,8.0,73,0.00,,---,0.00,VWS V14.01,2013-01-09 03:32:00,
2013-01-08 19:37:00,40.9,33.3,30.03,NE,44,5.0,8.0,74,0.00,,---,0.00,VWS V14.01,2013-01-09 03:37:00,
2013-01-08 19:42:00,41.1,33.8,30.03,NE,50,5.0,8.0,75,0.00,,---,0.00,VWS V14.01,2013-01-09 03:42:00,
2013-01-08 19:45:00,40.7,33.4,30.03,NE,49,3.0,8.0,75,0.00,,---,0.00,VWS V14.01,2013-01-09 03:45:00,
2013-01-08 19:47:00,40.4,33.1,30.03,NE,55,6.0,6.0,75,0.00,,---,0.00,VWS V14.01,2013-01-09 03:47:00,
2013-01-08 19:52:00,39.3,32.7,30.02,NE,55,6.0,6.0,77,0.00,,---,0.00,VWS V14.01,2013-01-09 03:52:00,
2013-01-08 19:57:00,39.4,33.1,30.02,NE,50,6.0,8.0,78,0.00,,---,0.00,VWS V14.01,2013-01-09 03:57:00,
2013-01-08 20:00:00,39.2,32.6,30.02,ENE,57,6.0,8.0,77,0.00,,---,0.00,VWS V14.01,2013-01-09 04:00:00,
2013-01-08 20:02:00,39.4,33.4,30.02,ENE,58,8.0,8.0,79,0.00,,---,0.00,VWS V14.01,2013-01-09 04:02:00,
2013-01-08 20:07:00,41.5,34.2,30.02,ENE,76,4.0,8.0,75,0.00,,---,0.00,VWS V14.01,2013-01-09 04:07:00,
2013-01-08 20:12:00,40.7,33.4,30.02,ENE,59,3.0,8.0,75,0.00,,---,0.00,VWS V14.01,2013-01-09 04:12:00,
2013-01-08 20:15:00,40.6,33.3,30.02,ENE,57,4.0,8.0,75,0.00,,---,0.00,VWS V14.01,2013-01-09 04:15:00,
2013-01-08 20:17:00,40.1,32.8,30.02,ENE,58,6.0,6.0,75,0.00,,---,0.00,VWS V14.01,2013-01-09 04:17:00,
2013-01-08 20:22:00,39.8,32.9,30.02,ENE,68,3.0,6.0,76,0.00,,---,0.00,VWS V14.01,2013-01-09 04:22:00,
2013-01-08 20:27:00,40.3,33.3,30.01,NE,45,5.0,6.0,76,0.00,,---,0.00,VWS V14.01,2013-01-09 04:27:00,
2013-01-08 20:30:00,40.8,33.5,30.01,NE,50,2.0,6.0,75,0.00,,---,0.00,VWS V14.01,2013-01-09 04:30:00,
2013-01-08 20:32:00,41.4,33.8,30.01,ENE,57,6.0,7.0,74,0.00,,---,0.00,VWS V14.01,2013-01-09 04:32:00,
2013-01-08 20:37:00,41.5,33.2,30.01,NE,39,5.0,7.0,72,0.00,,---,0.00,VWS V14.01,2013-01-09 04:37:00,
2013-01-08 20:42:00,41.0,33.4,30.01,NE,48,3.0,7.0,74,0.00,,---,0.00,VWS V14.01,2013-01-09 04:42:00,
2013-01-08 20:45:00,40.3,32.3,30.01,ENE,67,4.0,7.0,73,0.00,,---,0.00,VWS V14.01,2013-01-09 04:45:00,
2013-01-08 20:47:00,39.3,32.0,30.01,NE,53,5.0,6.0,75,0.00,,---,0.00,VWS V14.01,2013-01-09 04:47:00,
2013-01-08 20:52:00,38.8,32.2,30.01,ENE,67,6.0,6.0,77,0.00,,---,0.00,VWS V14.01,2013-01-09 04:52:00,
2013-01-08 20:57:00,37.6,32.0,30.01,NE,48,5.0,7.0,80,0.00,,---,0.00,VWS V14.01,2013-01-09 04:57:00,
2013-01-08 21:00:00,37.8,32.2,30.00,NE,51,5.0,7.0,80,0.00,,---,0.00,VWS V14.01,2013-01-09 05:00:00,
2013-01-08 21:03:00,37.6,31.7,30.01,NE,41,5.0,7.0,79,0.00,,---,0.00,VWS V14.01,2013-01-09 05:03:00,
2013-01-08 21:08:00,37.8,32.2,30.01,NE,45,4.0,9.0,80,0.00,,---,0.00,VWS V14.01,2013-01-09 05:08:00,
2013-01-08 21:13:00,38.4,32.2,30.00,NE,50,3.0,9.0,78,0.00,,---,0.00,VWS V14.01,2013-01-09 05:13:00,
2013-01-08 21:15:00,37.9,31.4,30.00,NE,44,7.0,9.0,77,0.00,,---,0.00,VWS V14.01,2013-01-09 05:15:00,
2013-01-08 21:27:00,38.3,32.0,30.00,NE,53,5.0,5.0,78,0.00,,---,0.00,VWS V14.01,2013-01-09 05:27:00,
2013-01-08 21:30:00,40.9,32.9,29.99,NNE,28,6.0,10.0,73,0.00,,---,0.00,VWS V14.01,2013-01-09 05:30:00,
2013-01-08 21:32:00,37.6,31.7,30.00,ENE,62,8.0,10.0,79,0.00,,---,0.00,VWS V14.01,2013-01-09 05:32:00,
2013-01-08 21:36:00,38.0,32.1,30.01,ENE,66,6.0,10.0,79,0.00,,---,0.00,VWS V14.01,2013-01-09 05:36:00,
2013-01-08 21:41:00,38.7,32.1,30.00,ENE,67,8.0,10.0,77,0.00,,---,0.00,VWS V14.01,2013-01-09 05:41:00,
2013-01-08 21:45:00,43.3,33.5,29.98,NE,42,5.0,15.0,68,0.00,,---,0.00,VWS V14.01,2013-01-09 05:45:00,
2013-01-08 21:46:00,39.6,32.7,30.00,NE,56,8.0,10.0,76,0.00,,---,0.00,VWS V14.01,2013-01-09 05:46:00,
2013-01-08 21:51:00,40.1,32.5,30.00,NE,47,6.0,10.0,74,0.00,,---,0.00,VWS V14.01,2013-01-09 05:51:00,
2013-01-08 21:56:00,40.2,32.6,30.00,NE,45,4.0,10.0,74,0.00,,---,0.00,VWS V14.01,2013-01-09 05:56:00,
2013-01-08 22:00:00,44.3,34.0,29.98,NE,40,6.0,18.0,67,0.00,,---,0.00,VWS V14.01,2013-01-09 06:00:00,
2013-01-08 22:01:00,40.3,32.7,30.00,NE,34,3.0,4.0,74,0.00,,---,0.00,VWS V14.01,2013-01-09 06:01:00,
2013-01-08 22:06:00,41.1,33.1,30.00,NE,35,6.0,7.0,73,0.00,,---,0.00,VWS V14.01,2013-01-09 06:06:00,
2013-01-08 22:11:00,41.4,33.1,29.99,NE,40,4.0,8.0,72,0.00,,---,0.00,VWS V14.01,2013-01-09 06:11:00,
2013-01-08 22:15:00,44.5,33.9,29.98,NE,48,10.0,14.0,66,0.00,,---,0.00,VWS V14.01,2013-01-09 06:15:00,
2013-01-08 22:16:00,40.6,32.6,29.99,ENE,60,4.0,8.0,73,0.00,,---,0.00,VWS V14.01,2013-01-09 06:16:00,
2013-01-08 22:21:00,40.3,32.3,29.99,NE,48,7.0,10.0,73,0.00,,---,0.00,VWS V14.01,2013-01-09 06:21:00,
2013-01-08 22:26:00,40.7,32.7,29.99,NE,51,7.0,10.0,73,0.00,,---,0.00,VWS V14.01,2013-01-09 06:26:00,
2013-01-08 22:30:00,43.6,33.8,29.98,NNE,33,11.0,11.0,68,0.00,,---,0.00,VWS V14.01,2013-01-09 06:30:00,
2013-01-08 22:31:00,41.2,33.2,29.99,NNE,26,7.0,9.0,73,0.00,,---,0.00,VWS V14.01,2013-01-09 06:31:00,
2013-01-08 22:36:00,42.5,33.4,29.99,NE,44,9.0,13.0,70,0.00,,---,0.00,VWS V14.01,2013-01-09 06:36:00,
2013-01-08 22:41:00,42.8,33.3,29.98,NNE,32,12.0,14.0,69,0.00,,---,0.00,VWS V14.01,2013-01-09 06:41:00,
2013-01-08 22:45:00,42.9,33.4,29.97,ENE,59,3.0,11.0,69,0.00,,---,0.00,VWS V14.01,2013-01-09 06:45:00,
2013-01-08 22:46:00,43.3,33.5,29.98,NNE,21,11.0,13.0,68,0.00,,---,0.00,VWS V14.01,2013-01-09 06:46:00,
2013-01-08 22:51:00,43.2,33.7,29.98,NNE,14,10.0,18.0,69,0.00,,---,0.00,VWS V14.01,2013-01-09 06:51:00,
2013-01-08 22:56:00,43.3,33.5,29.98,North,11,10.0,18.0,68,0.00,,---,0.00,VWS V14.01,2013-01-09 06:56:00,
2013-01-08 23:00:00,42.4,33.3,29.97,NNE,17,0.0,7.0,70,0.00,,---,0.00,VWS V14.01,2013-01-09 07:00:00,
2013-01-08 23:01:00,44.7,34.0,29.98,NE,38,3.0,8.0,66,0.00,,---,0.00,VWS V14.01,2013-01-09 07:01:00,
2013-01-08 23:06:00,44.4,33.8,29.98,NNE,19,9.0,13.0,66,0.00,,---,0.00,VWS V14.01,2013-01-09 07:06:00,
2013-01-08 23:11:00,44.5,33.9,29.98,ENE,62,7.0,14.0,66,0.00,,---,0.00,VWS V14.01,2013-01-09 07:11:00,
2013-01-08 23:15:00,43.0,33.5,29.96,ENE,61,4.0,6.0,69,0.00,,---,0.00,VWS V14.01,2013-01-09 07:15:00,
2013-01-08 23:16:00,44.0,33.4,29.98,NE,54,10.0,11.0,66,0.00,,---,0.00,VWS V14.01,2013-01-09 07:16:00,
2013-01-08 23:21:00,44.7,34.0,29.98,ENE,71,5.0,11.0,66,0.00,,---,0.00,VWS V14.01,2013-01-09 07:21:00,
2013-01-08 23:26:00,43.7,33.5,29.98,ENE,77,4.0,11.0,67,0.00,,---,0.00,VWS V14.01,2013-01-09 07:26:00,
2013-01-08 23:30:00,42.8,33.3,29.95,East,91,7.0,7.0,69,0.00,,---,0.00,VWS V14.01,2013-01-09 07:30:00,
2013-01-08 23:31:00,43.6,33.8,29.97,NNE,30,9.0,11.0,68,0.00,,---,0.00,VWS V14.01,2013-01-09 07:31:00,
2013-01-08 23:36:00,43.3,33.5,29.97,NE,44,5.0,11.0,68,0.00,,---,0.00,VWS V14.01,2013-01-09 07:36:00,
2013-01-08 23:41:00,42.9,33.4,29.97,NE,36,6.0,11.0,69,0.00,,---,0.00,VWS V14.01,2013-01-09 07:41:00,
2013-01-08 23:45:00,44.1,33.9,29.94,ESE,102,7.0,9.0,67,0.00,,---,0.00,VWS V14.01,2013-01-09 07:45:00,
2013-01-08 23:46:00,42.8,33.3,29.97,NE,44,2.0,4.0,69,0.00,,---,0.00,VWS V14.01,2013-01-09 07:46:00,
2013-01-08 23:51:00,42.4,33.3,29.97,NE,38,3.0,7.0,70,0.00,,---,0.00,VWS V14.01,2013-01-09 07:51:00,
2013-01-08 23:56:00,42.4,33.3,29.97,NNE,17,0.0,7.0,70,0.00,,---,0.00,VWS V14.01,2013-01-09 07:56:00,